createdAt,value
2018-02-22T00:01:16.762Z,42.37
2018-02-22T00:03:44.281Z,42.30
2018-02-22T00:06:11.775Z,44.53
2018-02-22T00:08:39.350Z,41.33
2018-02-22T00:11:06.854Z,41.70
2018-02-22T00:13:34.360Z,44.40
2018-02-22T00:16:01.899Z,41.23
2018-02-22T00:18:30.220Z,44.90
2018-02-22T00:20:57.709Z,42.43
2018-02-22T00:23:25.209Z,48.33
2018-02-22T00:25:53.044Z,38.23
2018-02-22T00:28:21.311Z,43.00
2018-02-22T00:30:48.852Z,42.37
2018-02-22T00:33:16.362Z,44.33
2018-02-22T00:35:43.876Z,42.40
2018-02-22T00:38:11.403Z,41.83
2018-02-22T00:40:38.896Z,39.70
2018-02-22T00:43:06.423Z,44.40
2018-02-22T00:45:33.920Z,37.40
2018-02-22T00:48:02.214Z,41.00
2018-02-22T00:50:29.741Z,41.10
2018-02-22T00:52:57.267Z,39.73
2018-02-22T00:55:24.787Z,43.37
2018-02-22T00:57:53.056Z,43.77
2018-02-22T01:00:21.356Z,45.13
2018-02-22T01:02:48.875Z,41.07
2018-02-22T01:05:17.159Z,40.13
2018-02-22T01:07:45.455Z,45.93
2018-02-22T01:10:12.955Z,39.07
2018-02-22T01:12:40.525Z,42.60
2018-02-22T01:15:08.184Z,40.90
2018-02-22T01:17:35.715Z,45.50
2018-02-22T01:20:03.217Z,41.53
2018-02-22T01:22:30.767Z,42.27
2018-02-22T01:24:58.304Z,40.70
2018-02-22T01:27:25.800Z,45.53
2018-02-22T01:29:54.088Z,36.93
2018-02-22T01:32:22.364Z,40.53
2018-02-22T01:34:49.924Z,36.60
2018-02-22T01:37:17.433Z,40.50
2018-02-22T01:39:44.980Z,37.42
2018-02-22T01:42:12.484Z,41.33
2018-02-22T01:44:40.767Z,37.75
2018-02-22T01:47:09.047Z,42.57
2018-02-22T01:49:36.567Z,39.80
2018-02-22T01:52:04.131Z,42.47
2018-02-22T01:54:31.641Z,38.20
2018-02-22T01:56:59.151Z,39.90
2018-02-22T01:59:27.450Z,44.42
2018-02-22T02:01:54.972Z,40.90
2018-02-22T02:04:22.491Z,41.37
2018-02-22T02:06:50.016Z,35.33
2018-02-22T02:09:17.551Z,40.60
2018-02-22T02:11:45.055Z,39.40
2018-02-22T02:14:12.595Z,42.30
2018-02-22T02:16:40.130Z,36.15
2018-02-22T02:19:08.439Z,37.88
2018-02-22T02:21:35.991Z,38.27
2018-02-22T02:24:03.509Z,39.97
2018-02-22T02:26:31.026Z,37.97
2018-02-22T02:28:58.577Z,37.80
2018-02-22T02:31:26.098Z,41.30
2018-02-22T02:33:54.377Z,40.38
2018-02-22T02:36:22.659Z,44.83
2018-02-22T02:38:50.958Z,38.03
2018-02-22T02:41:18.473Z,40.13
2018-02-22T02:43:46.009Z,38.72
2018-02-22T02:46:13.534Z,38.97
2018-02-22T02:48:41.072Z,43.77
2018-02-22T02:51:08.580Z,40.65
2018-02-22T02:53:36.124Z,35.78
2018-02-22T02:56:03.628Z,39.97
2018-02-22T02:58:31.128Z,33.27
2018-02-22T03:00:58.673Z,34.00
2018-02-22T03:03:26.182Z,39.83
2018-02-22T03:05:54.501Z,35.03
2018-02-22T03:08:21.996Z,32.97
2018-02-22T03:10:49.515Z,38.73
2018-02-22T03:13:17.025Z,41.28
2018-02-22T03:15:44.557Z,35.53
2018-02-22T03:18:12.059Z,38.70
2018-02-22T03:20:39.605Z,40.50
2018-02-22T03:23:07.121Z,34.37
2018-02-22T03:25:34.621Z,33.73
2018-02-22T03:28:02.144Z,35.23
2018-02-22T03:30:29.650Z,28.10
2018-02-22T03:32:57.950Z,38.53
2018-02-22T03:35:25.504Z,38.43
2018-02-22T03:37:53.004Z,37.13
2018-02-22T03:40:20.524Z,34.27
2018-02-22T03:42:48.068Z,34.77
2018-02-22T03:45:16.349Z,38.97
2018-02-22T03:47:44.616Z,40.53
2018-02-22T03:50:12.904Z,34.47
2018-02-22T03:52:40.407Z,33.60
2018-02-22T03:55:07.940Z,34.97
2018-02-22T03:57:35.452Z,35.50
2018-02-22T04:00:03.764Z,36.38
2018-02-22T04:02:31.271Z,34.00
2018-02-22T04:04:58.778Z,38.83
2018-02-22T04:07:26.344Z,38.55
2018-02-22T04:09:53.844Z,35.57
2018-02-22T04:12:21.376Z,34.90
2018-02-22T04:14:48.888Z,35.58
2018-02-22T04:17:17.430Z,33.22
2018-02-22T04:19:44.931Z,32.78
2018-02-22T04:22:23.151Z,30.90
2018-02-22T04:24:51.419Z,36.50
2018-02-22T04:27:18.951Z,32.55
2018-02-22T04:29:47.240Z,35.03
2018-02-22T04:32:15.532Z,29.73
2018-02-22T04:34:43.074Z,34.30
2018-02-22T04:37:11.391Z,31.58
2018-02-22T04:39:38.912Z,28.30
2018-02-22T04:42:07.215Z,33.70
2018-02-22T04:44:34.745Z,27.95
2018-02-22T04:47:03.024Z,31.58
2018-02-22T04:49:31.408Z,29.98
2018-02-22T04:51:59.017Z,30.67
2018-02-22T04:54:26.560Z,30.88
2018-02-22T04:56:54.110Z,30.10
2018-02-22T04:59:22.421Z,30.08
2018-02-22T05:01:49.958Z,29.20
2018-02-22T05:04:17.460Z,32.97
2018-02-22T05:06:45.753Z,29.98
2018-02-22T05:09:13.265Z,29.83
2018-02-22T05:11:40.804Z,30.42
2018-02-22T05:14:08.328Z,32.13
2018-02-22T05:16:36.629Z,26.77
2018-02-22T05:19:04.150Z,34.00
2018-02-22T05:21:32.431Z,28.83
2018-02-22T05:23:59.960Z,31.00
2018-02-22T05:26:27.484Z,30.10
2018-02-22T05:28:55.017Z,28.47
2018-02-22T05:31:22.516Z,29.87
2018-02-22T05:33:50.044Z,29.20
2018-02-22T05:36:17.561Z,31.25
2018-02-22T05:38:45.830Z,27.98
2018-02-22T05:41:13.362Z,31.17
2018-02-22T05:43:40.876Z,29.73
2018-02-22T05:46:08.416Z,30.85
2018-02-22T05:48:36.687Z,33.10
2018-02-22T05:51:04.998Z,30.12
2018-02-22T05:53:32.506Z,31.65
2018-02-22T05:56:00.040Z,28.98
2018-02-22T05:58:27.638Z,31.40
2018-02-22T06:00:55.147Z,29.48
2018-02-22T06:03:22.654Z,29.83
2018-02-22T06:05:50.992Z,31.02
2018-02-22T06:08:18.523Z,31.60
2018-02-22T06:10:46.032Z,35.70
2018-02-22T06:13:13.575Z,33.92
2018-02-22T06:15:41.075Z,28.12
2018-02-22T06:18:08.600Z,29.58
2018-02-22T06:20:36.115Z,28.95
2018-02-22T06:23:03.660Z,29.02
2018-02-22T06:25:31.168Z,26.48
2018-02-22T06:27:58.685Z,29.50
2018-02-22T06:30:26.233Z,29.12
2018-02-22T06:32:53.792Z,35.17
2018-02-22T06:35:22.078Z,32.25
2018-02-22T06:37:49.584Z,28.48
2018-02-22T06:40:17.111Z,31.25
2018-02-22T06:42:44.645Z,33.20
2018-02-22T06:45:12.154Z,28.60
2018-02-22T06:47:39.657Z,33.15
2018-02-22T06:50:07.206Z,30.25
2018-02-22T06:52:34.706Z,28.15
2018-02-22T06:55:02.238Z,36.10
2018-02-22T06:57:29.777Z,34.42
2018-02-22T06:59:57.303Z,37.63
2018-02-22T07:02:25.578Z,24.60
2018-02-22T07:04:53.107Z,33.23
2018-02-22T07:07:20.604Z,27.40
2018-02-22T07:09:48.910Z,36.17
2018-02-22T07:12:16.422Z,32.58
2018-02-22T07:14:43.951Z,31.50
2018-02-22T07:17:11.471Z,30.48
2018-02-22T07:19:39.007Z,26.90
2018-02-22T07:22:07.284Z,33.90
2018-02-22T07:24:35.605Z,30.88
2018-02-22T07:27:03.157Z,29.60
2018-02-22T07:29:30.659Z,27.45
2018-02-22T07:31:58.188Z,29.67
2018-02-22T07:34:25.698Z,29.17
2018-02-22T07:36:54.000Z,30.05
2018-02-22T07:39:21.522Z,30.00
2018-02-22T07:41:49.819Z,32.85
2018-02-22T07:44:18.092Z,29.77
2018-02-22T07:46:45.656Z,32.42
2018-02-22T07:49:13.147Z,29.93
2018-02-22T07:51:40.652Z,30.23
2018-02-22T07:54:08.941Z,28.10
2018-02-22T07:56:36.452Z,28.50
2018-02-22T07:59:04.006Z,29.95
2018-02-22T08:01:31.527Z,34.45
2018-02-22T08:03:59.088Z,33.27
2018-02-22T08:06:26.593Z,29.97
2018-02-22T08:08:54.100Z,36.17
2018-02-22T08:11:21.629Z,30.87
2018-02-22T08:13:49.921Z,31.83
2018-02-22T08:16:17.454Z,30.47
2018-02-22T08:18:44.958Z,31.02
2018-02-22T08:21:12.488Z,26.80
2018-02-22T08:23:40.761Z,31.77
2018-02-22T08:26:09.055Z,29.25
2018-02-22T08:28:36.587Z,32.33
2018-02-22T08:31:04.869Z,28.97
2018-02-22T08:33:33.207Z,32.13
2018-02-22T08:36:00.715Z,32.70
2018-02-22T08:38:28.256Z,30.88
2018-02-22T08:40:56.547Z,30.43
2018-02-22T08:43:24.147Z,34.38
2018-02-22T08:45:51.648Z,29.80
2018-02-22T08:48:19.913Z,28.43
2018-02-22T08:50:47.443Z,28.00
2018-02-22T08:53:14.954Z,31.30
2018-02-22T08:55:42.478Z,32.45
2018-02-22T08:58:10.004Z,28.15
2018-02-22T09:00:37.585Z,27.40
2018-02-22T09:03:05.865Z,26.23
2018-02-22T09:05:33.403Z,30.25
2018-02-22T09:08:00.941Z,30.00
2018-02-22T09:10:28.453Z,29.55
2018-02-22T09:12:55.972Z,28.67
2018-02-22T09:15:23.474Z,24.98
2018-02-22T09:17:51.785Z,25.17
2018-02-22T09:20:19.292Z,27.30
2018-02-22T09:22:46.801Z,26.53
2018-02-22T09:25:14.334Z,26.60
2018-02-22T09:27:42.595Z,23.27
2018-02-22T09:30:10.136Z,24.40
2018-02-22T09:32:37.646Z,23.93
2018-02-22T09:35:05.176Z,22.30
2018-02-22T09:37:33.456Z,23.87
2018-02-22T09:40:01.731Z,23.17
2018-02-22T09:42:30.032Z,28.40
2018-02-22T09:44:57.540Z,24.60
2018-02-22T09:47:25.076Z,27.33
2018-02-22T09:49:52.591Z,26.93
2018-02-22T09:52:20.132Z,22.17
2018-02-22T09:54:48.452Z,26.87
2018-02-22T09:57:15.972Z,23.83
2018-02-22T09:59:44.241Z,25.53
2018-02-22T10:02:11.786Z,23.63
2018-02-22T10:04:39.292Z,26.53
2018-02-22T10:07:06.804Z,27.90
2018-02-22T10:09:34.309Z,34.50
2018-02-22T10:12:01.815Z,24.63
2018-02-22T10:14:29.352Z,25.90
2018-02-22T10:16:56.857Z,25.93
2018-02-22T10:19:24.366Z,26.43
2018-02-22T10:21:51.898Z,21.17
2018-02-22T10:24:19.403Z,25.70
2018-02-22T10:26:46.928Z,22.23
2018-02-22T10:29:14.464Z,25.07
2018-02-22T10:31:41.982Z,22.83
2018-02-22T10:34:09.480Z,29.57
2018-02-22T10:36:37.023Z,27.07
2018-02-22T10:39:04.584Z,22.07
2018-02-22T10:41:32.850Z,24.47
2018-02-22T10:44:00.372Z,28.70
2018-02-22T10:46:27.889Z,23.43
2018-02-22T10:48:55.527Z,25.50
2018-02-22T10:51:23.844Z,24.77
2018-02-22T10:53:51.369Z,22.73
2018-02-22T10:56:18.868Z,23.07
2018-02-22T10:58:46.406Z,25.50
2018-02-22T11:01:19.511Z,24.80
2018-02-22T11:03:47.033Z,27.23
2018-02-22T11:06:14.558Z,28.30
2018-02-22T11:08:42.108Z,26.40
2018-02-22T11:11:09.646Z,24.60
2018-02-22T11:13:37.163Z,26.50
2018-02-22T11:16:04.712Z,26.43
2018-02-22T11:18:32.229Z,27.83
2018-02-22T11:20:59.784Z,25.00
2018-02-22T11:23:27.276Z,24.33
2018-02-22T11:25:54.832Z,25.87
2018-02-22T11:28:23.140Z,27.83
2018-02-22T11:30:50.661Z,26.10
2018-02-22T11:33:18.984Z,22.73
2018-02-22T11:35:46.490Z,26.03
2018-02-22T11:38:14.052Z,25.03
2018-02-22T11:40:41.583Z,21.33
2018-02-22T11:43:09.096Z,23.13
2018-02-22T11:45:36.646Z,22.40
2018-02-22T11:48:04.905Z,26.07
2018-02-22T11:50:33.204Z,26.40
2018-02-22T11:53:00.713Z,21.13
2018-02-22T11:55:29.769Z,23.20
2018-02-22T11:57:57.292Z,23.10
2018-02-22T12:00:25.573Z,21.90
2018-02-22T12:02:53.869Z,22.20
2018-02-22T12:05:21.449Z,22.63
2018-02-22T12:07:48.967Z,21.37
2018-02-22T12:10:17.236Z,24.07
2018-02-22T12:12:45.553Z,18.37
2018-02-22T12:15:13.064Z,22.80
2018-02-22T12:17:41.349Z,22.60
2018-02-22T12:20:09.650Z,18.80
2018-02-22T12:22:37.148Z,21.20
2018-02-22T12:25:04.704Z,20.23
2018-02-22T12:27:32.229Z,19.63
2018-02-22T12:29:59.756Z,20.70
2018-02-22T12:32:28.017Z,20.70
2018-02-22T12:34:56.309Z,16.37
2018-02-22T12:37:23.816Z,17.63
2018-02-22T12:39:51.357Z,19.43
2018-02-22T12:42:18.901Z,22.53
2018-02-22T12:44:46.394Z,22.03
2018-02-22T12:47:13.932Z,16.13
2018-02-22T12:49:41.431Z,15.73
2018-02-22T12:52:08.949Z,19.23
2018-02-22T12:54:36.460Z,17.93
2018-02-22T12:57:04.747Z,15.40
2018-02-22T12:59:33.028Z,18.73
2018-02-22T13:02:00.523Z,17.47
2018-02-22T13:04:28.063Z,16.70
2018-02-22T13:06:55.588Z,23.37
2018-02-22T13:09:23.891Z,16.07
2018-02-22T13:11:51.404Z,15.53
2018-02-22T13:14:18.955Z,17.20
2018-02-22T13:16:46.456Z,17.10
2018-02-22T13:19:13.986Z,24.13
2018-02-22T13:21:42.284Z,14.40
2018-02-22T13:24:09.812Z,15.40
2018-02-22T13:26:37.348Z,19.37
2018-02-22T13:29:04.857Z,17.03
2018-02-22T13:31:32.392Z,17.60
2018-02-22T13:34:21.408Z,19.20
2018-02-22T13:36:48.951Z,17.90
2018-02-22T13:39:16.488Z,15.13
2018-02-22T13:41:44.813Z,17.90
2018-02-22T13:44:24.380Z,16.37
2018-02-22T13:46:51.920Z,16.13
2018-02-22T13:49:31.495Z,16.00
2018-02-22T13:51:59.808Z,15.90
2018-02-22T13:54:27.377Z,20.60
2018-02-22T13:57:06.714Z,18.47
2018-02-22T13:59:34.256Z,15.20
2018-02-22T14:02:13.729Z,15.87
2018-02-22T14:04:41.273Z,13.93
2018-02-22T14:07:08.795Z,16.80
2018-02-22T14:09:36.323Z,16.40
2018-02-22T14:12:04.684Z,16.67
2018-02-22T14:14:32.304Z,15.90
2018-02-22T14:16:59.840Z,16.00
2018-02-22T14:19:27.374Z,16.20
2018-02-22T14:21:55.980Z,14.47
2018-02-22T14:24:24.294Z,20.07
2018-02-22T14:26:51.851Z,13.47
2018-02-22T14:29:19.394Z,14.70
2018-02-22T14:31:46.923Z,18.80
2018-02-22T14:34:15.199Z,16.87
2018-02-22T14:36:43.507Z,19.60
2018-02-22T14:39:11.007Z,16.53
2018-02-22T14:41:39.308Z,14.97
2018-02-22T14:44:07.583Z,19.17
2018-02-22T14:46:35.121Z,16.60
2018-02-22T14:49:02.634Z,15.40
2018-02-22T14:51:30.156Z,16.27
2018-02-22T14:53:57.707Z,14.93
2018-02-22T14:56:26.032Z,15.90
2018-02-22T14:58:53.563Z,17.73
2018-02-22T15:01:21.075Z,16.93
2018-02-22T15:03:48.599Z,19.00
2018-02-22T15:06:16.158Z,13.53
2018-02-22T15:08:43.689Z,14.63
2018-02-22T15:11:11.196Z,18.37
2018-02-22T15:13:38.742Z,17.73
2018-02-22T15:16:06.257Z,13.63
2018-02-22T15:18:33.762Z,17.03
2018-02-22T15:21:01.298Z,16.73
2018-02-22T15:23:28.796Z,14.60
2018-02-22T15:25:56.329Z,19.87
2018-02-22T15:28:23.852Z,16.37
2018-02-22T15:30:51.385Z,15.97
2018-02-22T15:33:19.688Z,15.30
2018-02-22T15:35:47.211Z,12.83
2018-02-22T15:38:14.740Z,14.47
2018-02-22T15:40:42.248Z,15.03
2018-02-22T15:43:10.553Z,16.97
2018-02-22T15:45:38.100Z,16.27
2018-02-22T15:48:05.654Z,15.70
2018-02-22T15:50:33.159Z,16.10
2018-02-22T15:53:00.679Z,15.23
2018-02-22T15:55:28.188Z,15.27
2018-02-22T15:57:55.709Z,16.47
2018-02-22T16:00:23.232Z,21.50
2018-02-22T16:02:50.729Z,12.80
2018-02-22T16:05:18.252Z,12.80
2018-02-22T16:07:45.810Z,16.80
2018-02-22T16:10:13.316Z,17.57
2018-02-22T16:12:40.832Z,17.53
2018-02-22T16:15:08.388Z,21.60
2018-02-22T16:17:35.898Z,18.60
2018-02-22T16:20:03.415Z,15.63
2018-02-22T16:22:30.959Z,14.67
2018-02-22T16:24:58.470Z,13.23
2018-02-22T16:27:26.073Z,14.83
2018-02-22T16:29:54.326Z,18.10
2018-02-22T16:32:22.657Z,16.20
2018-02-22T16:34:50.195Z,14.97
2018-02-22T16:37:17.749Z,13.00
2018-02-22T16:39:45.225Z,14.43
2018-02-22T16:42:12.747Z,13.67
2018-02-22T16:44:41.057Z,12.90
2018-02-22T16:47:08.572Z,13.10
2018-02-22T16:49:36.867Z,19.77
2018-02-22T16:52:04.394Z,15.10
2018-02-22T16:54:31.925Z,16.80
2018-02-22T16:56:59.449Z,15.07
2018-02-22T16:59:26.976Z,18.23
2018-02-22T17:01:55.260Z,15.43
2018-02-22T17:04:23.564Z,14.90
2018-02-22T17:06:51.106Z,14.40
2018-02-22T17:09:18.647Z,17.80
2018-02-22T17:11:46.929Z,14.20
2018-02-22T17:14:14.488Z,15.80
2018-02-22T17:16:42.012Z,13.30
2018-02-22T17:19:09.532Z,15.67
2018-02-22T17:21:37.086Z,14.93
2018-02-22T17:24:04.606Z,15.23
2018-02-22T17:26:37.986Z,16.27
2018-02-22T17:29:11.306Z,15.10
2018-02-22T17:31:45.306Z,12.73
2018-02-22T17:34:13.610Z,15.60
2018-02-22T17:36:46.887Z,15.20
2018-02-22T17:42:17.246Z,14.93
2018-02-22T17:44:44.760Z,13.83
2018-02-22T17:47:12.315Z,17.17
2018-02-22T17:49:39.853Z,15.80
2018-02-22T17:52:07.364Z,16.87
2018-02-22T17:54:34.931Z,17.27
2018-02-22T17:57:02.478Z,12.80
2018-02-22T17:59:30.586Z,16.30
2018-02-22T18:01:58.088Z,19.53
2018-02-22T18:04:26.396Z,14.73
2018-02-22T18:06:53.914Z,17.03
2018-02-22T18:09:21.491Z,18.50
2018-02-22T18:11:49.813Z,19.57
2018-02-22T18:14:17.340Z,15.60
2018-02-22T18:16:44.873Z,16.10
2018-02-22T18:19:13.176Z,15.60
2018-02-22T18:21:40.709Z,17.87
2018-02-22T18:24:08.984Z,17.00
2018-02-22T18:26:37.281Z,16.77
2018-02-22T18:29:04.795Z,14.07
2018-02-22T18:31:32.365Z,14.27
2018-02-22T18:33:59.889Z,15.60
2018-02-22T18:36:27.462Z,16.03
2018-02-22T18:39:00.800Z,14.23
2018-02-22T18:41:29.121Z,14.23
2018-02-22T18:44:02.435Z,22.50
2018-02-22T18:46:29.988Z,17.73
2018-02-22T18:48:57.536Z,17.90
2018-02-22T18:51:25.149Z,16.23
2018-02-22T18:53:53.448Z,16.30
2018-02-22T18:56:20.959Z,14.03
2018-02-22T18:58:48.543Z,17.23
2018-02-22T19:01:16.045Z,16.13
2018-02-22T19:03:43.562Z,18.43
2018-02-22T19:06:11.161Z,17.07
2018-02-22T19:08:38.658Z,12.53
2018-02-22T19:11:07.017Z,15.53
2018-02-22T19:13:34.539Z,15.60
2018-02-22T19:16:02.117Z,16.17
2018-02-22T19:18:29.630Z,16.93
2018-02-22T19:20:57.170Z,15.33
2018-02-22T19:23:25.463Z,16.30
2018-02-22T19:25:53.107Z,17.07
2018-02-22T19:28:20.613Z,13.90
2018-02-22T19:30:48.197Z,17.70
2018-02-22T19:33:15.763Z,16.20
2018-02-22T19:35:44.820Z,12.73
2018-02-22T19:38:12.392Z,15.10
2018-02-22T19:40:39.908Z,11.43
2018-02-22T19:43:07.450Z,12.07
2018-02-22T19:45:35.748Z,12.50
2018-02-22T19:48:03.322Z,14.03
2018-02-22T19:50:30.818Z,12.93
2018-02-22T19:52:58.368Z,14.40
2018-02-22T19:55:25.897Z,12.53
2018-02-22T19:57:53.442Z,13.17
2018-02-22T20:00:20.958Z,13.00
2018-02-22T20:02:49.216Z,10.77
2018-02-22T20:05:16.762Z,14.70
2018-02-22T20:07:44.310Z,14.27
2018-02-22T20:10:11.853Z,12.00
2018-02-22T20:12:39.374Z,11.47
2018-02-22T20:15:07.729Z,11.03
2018-02-22T20:17:35.248Z,17.57
2018-02-22T20:20:02.820Z,14.80
2018-02-22T20:22:30.342Z,12.43
2018-02-22T20:24:57.874Z,11.80
2018-02-22T20:27:25.388Z,12.23
2018-02-22T20:29:52.924Z,13.63
2018-02-22T20:32:20.467Z,11.80
2018-02-22T20:34:48.781Z,12.13
2018-02-22T20:37:16.310Z,14.10
2018-02-22T20:39:43.862Z,11.20
2018-02-22T20:42:12.153Z,11.03
2018-02-22T20:44:39.683Z,12.90
2018-02-22T20:47:07.978Z,12.90
2018-02-22T20:49:35.523Z,11.43
2018-02-22T20:52:03.071Z,12.30
2018-02-22T20:54:31.357Z,11.17
2018-02-22T20:56:58.890Z,10.10
2018-02-22T20:59:26.424Z,10.90
2018-02-22T21:01:53.957Z,11.73
2018-02-22T21:04:21.485Z,13.33
2018-02-22T21:06:49.837Z,9.90
2018-02-22T21:09:17.460Z,11.50
2018-02-22T21:11:44.994Z,13.27
2018-02-22T21:14:12.492Z,12.67
2018-02-22T21:16:40.013Z,12.70
2018-02-22T21:19:07.554Z,11.60
2018-02-22T21:21:35.913Z,10.83
2018-02-22T21:24:03.481Z,9.10
2018-02-22T21:26:30.997Z,10.93
2018-02-22T21:28:58.566Z,12.57
2018-02-22T21:31:26.112Z,12.47
2018-02-22T21:33:53.630Z,10.93
2018-02-22T21:36:21.933Z,11.33
2018-02-22T21:38:49.513Z,11.00
2018-02-22T21:41:17.052Z,12.00
2018-02-22T21:43:44.557Z,9.97
2018-02-22T21:46:12.101Z,14.07
2018-02-22T21:48:39.620Z,9.97
2018-02-22T21:51:07.149Z,13.20
2018-02-22T21:53:35.454Z,10.90
2018-02-22T21:56:02.996Z,10.67
2018-02-22T21:58:31.259Z,10.13
2018-02-22T22:00:59.578Z,11.03
2018-02-22T22:03:27.094Z,10.60
2018-02-22T22:05:54.656Z,10.17
2018-02-22T22:08:22.156Z,8.03
2018-02-22T22:10:49.689Z,11.83
2018-02-22T22:13:17.227Z,11.90
2018-02-22T22:15:44.768Z,10.77
2018-02-22T22:18:13.081Z,9.47
2018-02-22T22:20:41.160Z,11.33
2018-02-22T22:23:08.679Z,9.97
2018-02-22T22:25:36.959Z,11.07
2018-02-22T22:28:05.269Z,12.43
2018-02-22T22:30:32.776Z,13.20
2018-02-22T22:33:00.294Z,12.07
2018-02-22T22:35:27.873Z,7.93
2018-02-22T22:37:55.375Z,12.80
2018-02-22T22:40:22.900Z,13.23
2018-02-22T22:42:50.414Z,9.80
2018-02-22T22:45:17.972Z,11.73
2018-02-22T22:47:45.500Z,10.73
2018-02-22T22:50:13.825Z,10.10
2018-02-22T22:52:41.363Z,13.03
2018-02-22T22:55:08.909Z,8.80
2018-02-22T22:57:36.418Z,10.70
2018-02-22T23:00:03.998Z,8.90
2018-02-22T23:02:32.289Z,12.57
2018-02-22T23:04:59.789Z,10.33
2018-02-22T23:07:27.352Z,11.43
2018-02-22T23:09:54.866Z,12.20
2018-02-22T23:12:22.418Z,11.17
2018-02-22T23:14:50.684Z,13.17
2018-02-22T23:17:18.968Z,11.30
2018-02-22T23:19:47.261Z,11.67
2018-02-22T23:22:14.801Z,10.03
2018-02-22T23:24:43.073Z,10.07
2018-02-22T23:27:11.400Z,12.70
2018-02-22T23:29:38.973Z,13.17
2018-02-22T23:32:06.494Z,13.73
2018-02-22T23:34:34.027Z,10.40
2018-02-22T23:37:02.289Z,11.30
2018-02-22T23:39:30.616Z,11.63
2018-02-22T23:42:03.894Z,12.40
2018-02-22T23:44:31.413Z,9.80
2018-02-22T23:46:58.940Z,11.50
2018-02-22T23:49:26.441Z,12.80
2018-02-22T23:51:54.826Z,11.80
2018-02-22T23:54:23.085Z,10.03
2018-02-22T23:56:51.392Z,12.97
2018-02-22T23:59:18.920Z,10.83
